Irchester, United Kingdom
Current Conditions -  °F | °C
As of 10:20 AM on Saturday 22 Nov 2014 (Local Time) from EGTC Reporting Station
Broken Clouds Broken Clouds  
Wind Chill: 55°   Ceiling: 4500
Heat Index: 55°   Visibility: 4mi
Dew Point: 54°   Wind: 10mph
Humidity: 94%   Direction: 180°S
Pressure: 29.88"   Gusts: NA
Location:  52.28°N, 0.65°W
Report Text: EGTC 221020Z 18009KT 060V200 6000 FEW004 SCT025 BKN045 13/12 Q1012
Loading
Personal Weather Stations






























Interactive Weather Map New forecast layout! Learn more

10-Day Weather Forecast

Advertisements
Track Severe Weather on mobile